Dereham, United Kingdom
Current Conditions -  °F | °C
As of 8:50 PM on Friday 19 Dec 2014 (Local Time) from EGSH Reporting Station
Clear Clear  
Wind Chill: 34°   Ceiling: Unl
Heat Index: 41°   Visibility: 6mi
Dew Point: 37°   Wind: 12mph
Humidity: 87%   Direction: 240°WSW
Pressure: 30.06"   Gusts: NA
Location:  52.64°N, 0.97°E
Report Text: EGSH 192050Z 24010KT CAVOK 05/03 Q1018 NOSIG
Loading
Personal Weather Stations






























Interactive Weather Map New forecast layout! Learn more

10-Day Weather Forecast

Advertisements
Track Severe Weather on mobile